createdAt,value
2018-05-29T00:02:24.471Z,65.07
2018-05-29T00:04:52.784Z,64.67
2018-05-29T00:07:22.064Z,64.80
2018-05-29T00:09:50.355Z,64.48
2018-05-29T00:12:18.687Z,64.73
2018-05-29T00:14:47.757Z,64.80
2018-05-29T00:17:16.031Z,65.07
2018-05-29T00:19:44.315Z,65.18
2018-05-29T00:22:12.618Z,65.64
2018-05-29T00:24:40.905Z,65.50
2018-05-29T00:27:09.174Z,65.68
2018-05-29T00:29:37.478Z,65.80
2018-05-29T00:32:05.756Z,65.83
2018-05-29T00:34:34.024Z,65.81
2018-05-29T00:37:02.329Z,65.92
2018-05-29T00:39:30.597Z,65.96
2018-05-29T00:41:58.899Z,66.06
2018-05-29T00:44:27.205Z,66.58
2018-05-29T00:46:55.536Z,66.84
2018-05-29T00:49:24.579Z,66.70
2018-05-29T00:51:52.918Z,66.62
2018-05-29T00:54:21.223Z,66.43
2018-05-29T00:56:50.324Z,66.69
2018-05-29T00:59:19.381Z,66.70
2018-05-29T01:01:47.674Z,66.59
2018-05-29T01:04:15.948Z,66.36
2018-05-29T01:06:44.212Z,66.32
2018-05-29T01:09:13.270Z,66.41
2018-05-29T01:11:41.554Z,66.43
2018-05-29T01:14:09.873Z,66.23
2018-05-29T01:16:38.185Z,66.46
2018-05-29T01:19:07.245Z,66.51
2018-05-29T01:21:35.556Z,66.35
2018-05-29T01:24:03.867Z,66.37
2018-05-29T01:26:32.910Z,66.27
2018-05-29T01:29:01.216Z,66.26
2018-05-29T01:31:29.498Z,66.49
2018-05-29T01:33:57.771Z,66.60
2018-05-29T01:36:26.075Z,66.55
2018-05-29T01:38:54.393Z,66.33
2018-05-29T01:41:22.705Z,66.09
2018-05-29T01:43:51.834Z,66.45
2018-05-29T01:46:20.532Z,66.59
2018-05-29T01:48:48.822Z,66.94
2018-05-29T01:51:17.104Z,66.82
2018-05-29T01:53:45.698Z,67.02
2018-05-29T01:56:13.979Z,67.17
2018-05-29T01:58:42.276Z,67.19
2018-05-29T02:01:10.608Z,67.43
2018-05-29T02:03:38.943Z,67.61
2018-05-29T02:06:08.018Z,67.62
2018-05-29T02:08:36.289Z,67.87
2018-05-29T02:11:04.563Z,68.20
2018-05-29T02:13:32.856Z,68.23
2018-05-29T02:16:01.132Z,68.15
2018-05-29T02:18:29.442Z,67.90
2018-05-29T02:20:57.733Z,67.96
2018-05-29T02:23:26.027Z,68.61
2018-05-29T02:25:54.375Z,68.39
2018-05-29T02:28:22.714Z,68.88
2018-05-29T02:30:50.990Z,68.56
2018-05-29T02:33:19.329Z,68.74
2018-05-29T02:35:47.624Z,68.55
2018-05-29T02:38:15.917Z,68.44
2018-05-29T02:40:44.186Z,68.51
2018-05-29T02:43:13.259Z,68.26
2018-05-29T02:45:41.540Z,68.29
2018-05-29T02:48:09.818Z,68.10
2018-05-29T02:50:38.102Z,68.48
2018-05-29T02:53:06.386Z,68.88
2018-05-29T02:55:35.444Z,68.54
2018-05-29T02:58:04.487Z,68.76
2018-05-29T03:00:32.798Z,68.38
2018-05-29T03:03:01.071Z,68.75
2018-05-29T03:05:29.364Z,68.89
2018-05-29T03:07:57.680Z,69.15
2018-05-29T03:10:25.937Z,69.03
2018-05-29T03:12:54.224Z,69.06
2018-05-29T03:15:22.503Z,69.00
2018-05-29T03:17:50.810Z,68.76
2018-05-29T03:20:19.114Z,69.04
2018-05-29T03:22:47.376Z,69.52
2018-05-29T03:25:15.644Z,69.08
2018-05-29T03:27:43.926Z,68.87
2018-05-29T03:30:12.215Z,68.52
2018-05-29T03:32:40.500Z,68.54
2018-05-29T03:35:08.791Z,68.48
2018-05-29T03:37:37.068Z,68.37
2018-05-29T03:40:06.710Z,68.16
2018-05-29T03:42:35.034Z,68.41
2018-05-29T03:45:03.311Z,68.53
2018-05-29T03:47:31.640Z,68.81
2018-05-29T03:50:00.703Z,68.84
2018-05-29T03:52:29.031Z,68.67
2018-05-29T03:54:57.313Z,69.09
2018-05-29T03:57:25.591Z,68.98
2018-05-29T03:59:54.047Z,68.44
2018-05-29T04:02:22.361Z,68.35
2018-05-29T04:04:50.646Z,68.37
2018-05-29T04:07:18.946Z,68.44
2018-05-29T04:09:48.412Z,68.41
2018-05-29T04:12:17.015Z,68.09
2018-05-29T04:14:45.293Z,68.28
2018-05-29T04:17:13.572Z,68.06
2018-05-29T04:19:42.628Z,68.26
2018-05-29T04:22:10.915Z,68.19
2018-05-29T04:24:39.202Z,68.26
2018-05-29T04:27:07.495Z,67.52
2018-05-29T04:29:36.523Z,67.45
2018-05-29T04:32:04.843Z,67.62
2018-05-29T04:34:33.110Z,67.35
2018-05-29T04:37:02.148Z,67.18
2018-05-29T04:39:30.428Z,67.18
2018-05-29T04:41:58.695Z,67.51
2018-05-29T04:44:27.743Z,67.47
2018-05-29T04:46:56.017Z,67.45
2018-05-29T04:49:24.293Z,68.06
2018-05-29T04:51:52.687Z,67.73
2018-05-29T04:54:20.970Z,67.70
2018-05-29T04:56:49.259Z,67.86
2018-05-29T04:59:18.270Z,67.39
2018-05-29T05:01:46.677Z,67.02
2018-05-29T05:04:14.949Z,67.38
2018-05-29T05:06:43.216Z,67.47
2018-05-29T05:09:12.410Z,66.96
2018-05-29T05:11:40.702Z,67.18
2018-05-29T05:14:09.732Z,67.99
2018-05-29T05:16:38.038Z,67.42
2018-05-29T05:19:06.314Z,66.94
2018-05-29T05:21:34.621Z,65.63
2018-05-29T05:24:02.884Z,65.97
2018-05-29T05:26:31.163Z,65.96
2018-05-29T05:28:59.432Z,65.25
2018-05-29T05:31:27.702Z,65.18
2018-05-29T05:33:55.983Z,64.70
2018-05-29T05:36:24.276Z,64.84
2018-05-29T05:38:52.575Z,63.23
2018-05-29T05:41:20.883Z,62.83
2018-05-29T05:43:49.929Z,62.62
2018-05-29T05:46:18.220Z,62.95
2018-05-29T05:48:46.502Z,62.87
2018-05-29T05:51:14.807Z,61.65
2018-05-29T05:53:43.091Z,60.97
2018-05-29T05:56:11.391Z,60.82
2018-05-29T05:58:39.678Z,59.83
2018-05-29T06:01:09.019Z,59.74
2018-05-29T06:03:37.293Z,59.21
2018-05-29T06:06:05.566Z,59.52
2018-05-29T06:08:34.083Z,58.29
2018-05-29T06:11:02.366Z,58.54
2018-05-29T06:13:30.658Z,58.45
2018-05-29T06:15:58.930Z,57.94
2018-05-29T06:18:27.212Z,56.92
2018-05-29T06:20:55.513Z,56.27
2018-05-29T06:23:23.860Z,56.87
2018-05-29T06:25:52.173Z,55.39
2018-05-29T06:28:20.490Z,54.86
2018-05-29T06:30:48.790Z,54.67
2018-05-29T06:33:17.838Z,55.13
2018-05-29T06:35:46.132Z,54.69
2018-05-29T06:38:14.460Z,55.16
2018-05-29T06:40:42.752Z,55.04
2018-05-29T06:43:11.022Z,55.11
2018-05-29T06:45:39.314Z,54.52
2018-05-29T06:48:07.607Z,55.08
2018-05-29T06:50:35.884Z,55.24
2018-05-29T06:53:04.962Z,55.11
2018-05-29T06:55:33.253Z,54.07
2018-05-29T06:58:01.534Z,53.08
2018-05-29T07:00:29.803Z,51.31
2018-05-29T07:02:58.079Z,51.67
2018-05-29T07:05:27.138Z,51.97
2018-05-29T07:07:55.421Z,51.46
2018-05-29T07:10:23.861Z,51.37
2018-05-29T07:12:52.142Z,52.56
2018-05-29T07:15:21.208Z,52.40
2018-05-29T07:17:49.521Z,50.04
2018-05-29T07:20:18.555Z,50.32
2018-05-29T07:22:47.598Z,50.48
2018-05-29T07:25:15.869Z,49.94
2018-05-29T07:27:44.147Z,50.54
2018-05-29T07:30:12.434Z,49.44
2018-05-29T07:32:40.699Z,48.65
2018-05-29T07:35:08.961Z,49.37
2018-05-29T07:37:37.251Z,50.54
2018-05-29T07:40:05.522Z,51.01
2018-05-29T07:42:33.805Z,50.37
2018-05-29T07:45:02.089Z,49.83
2018-05-29T07:47:30.386Z,48.94
2018-05-29T07:49:59.738Z,48.96
2018-05-29T07:52:28.063Z,48.98
2018-05-29T07:54:56.344Z,49.55
2018-05-29T07:57:24.684Z,48.92
2018-05-29T07:59:52.967Z,49.31
2018-05-29T08:02:21.283Z,49.54
2018-05-29T08:04:50.376Z,49.17
2018-05-29T08:07:18.660Z,48.93
2018-05-29T08:09:46.960Z,49.21
2018-05-29T08:12:15.226Z,48.93
2018-05-29T08:14:43.518Z,49.57
2018-05-29T08:17:11.795Z,50.50
2018-05-29T08:19:40.352Z,50.89
2018-05-29T08:22:08.643Z,51.20
2018-05-29T08:24:36.959Z,51.64
2018-05-29T08:27:05.236Z,52.20
2018-05-29T08:29:33.534Z,52.99
2018-05-29T08:32:01.815Z,52.70
2018-05-29T08:34:30.158Z,53.53
2018-05-29T08:36:59.206Z,52.86
2018-05-29T08:39:27.555Z,49.47
2018-05-29T08:41:55.793Z,49.21
2018-05-29T08:44:24.073Z,48.49
2018-05-29T08:46:52.393Z,48.80
2018-05-29T08:49:21.490Z,45.23
2018-05-29T08:51:49.794Z,45.63
2018-05-29T08:54:18.070Z,46.07
2018-05-29T08:56:46.386Z,46.93
2018-05-29T08:59:14.646Z,46.85
2018-05-29T09:01:42.961Z,47.86
2018-05-29T09:04:12.034Z,49.09
2018-05-29T09:06:40.373Z,49.10
2018-05-29T09:09:09.448Z,49.88
2018-05-29T09:11:37.852Z,49.55
2018-05-29T09:14:06.130Z,46.78
2018-05-29T09:16:34.410Z,47.22
2018-05-29T09:19:02.730Z,49.60
2018-05-29T09:21:31.790Z,46.88
2018-05-29T09:24:00.612Z,48.94
2018-05-29T09:26:28.901Z,46.82
2018-05-29T09:28:57.186Z,48.97
2018-05-29T09:31:25.486Z,46.60
2018-05-29T09:33:53.780Z,47.60
2018-05-29T09:36:22.111Z,46.73
2018-05-29T09:38:50.416Z,46.89
2018-05-29T09:41:18.707Z,46.95
2018-05-29T09:43:47.024Z,47.12
2018-05-29T09:46:15.318Z,44.14
2018-05-29T09:48:43.591Z,45.10
2018-05-29T09:51:11.894Z,45.11
2018-05-29T09:53:40.186Z,46.96
2018-05-29T09:56:08.459Z,46.38
2018-05-29T09:58:36.757Z,46.12
2018-05-29T10:01:05.061Z,46.41
2018-05-29T10:03:34.102Z,46.78
2018-05-29T10:06:02.482Z,47.97
2018-05-29T10:08:30.748Z,48.59
2018-05-29T10:10:59.806Z,49.26
2018-05-29T10:13:28.089Z,47.86
2018-05-29T10:15:56.366Z,47.73
2018-05-29T10:18:24.668Z,47.06
2018-05-29T10:20:52.960Z,48.11
2018-05-29T10:23:21.314Z,48.85
2018-05-29T10:25:49.568Z,49.25
2018-05-29T10:28:18.626Z,47.18
2018-05-29T10:30:46.921Z,49.90
2018-05-29T10:33:15.214Z,49.68
2018-05-29T10:35:43.516Z,49.54
2018-05-29T10:38:11.817Z,49.35
2018-05-29T10:40:40.107Z,45.30
2018-05-29T10:43:08.401Z,45.21
2018-05-29T10:45:36.697Z,46.66
2018-05-29T10:48:04.976Z,46.54
2018-05-29T10:50:33.280Z,45.79
2018-05-29T10:53:02.330Z,46.89
2018-05-29T10:55:30.614Z,47.88
2018-05-29T10:57:58.889Z,46.35
2018-05-29T11:00:27.163Z,47.20
2018-05-29T11:02:56.199Z,47.15
2018-05-29T11:05:24.542Z,47.47
2018-05-29T11:07:52.813Z,45.39
2018-05-29T11:10:21.095Z,48.65
2018-05-29T11:12:49.386Z,45.08
2018-05-29T11:15:17.674Z,45.13
2018-05-29T11:17:45.951Z,44.46
2018-05-29T11:20:14.252Z,47.33
2018-05-29T11:22:42.541Z,45.98
2018-05-29T11:25:10.832Z,47.85
2018-05-29T11:27:39.125Z,45.77
2018-05-29T11:30:07.411Z,47.89
2018-05-29T11:32:35.702Z,46.20
2018-05-29T11:35:03.983Z,47.03
2018-05-29T11:37:32.271Z,44.84
2018-05-29T11:40:00.917Z,45.76
2018-05-29T11:42:29.215Z,47.03
2018-05-29T11:44:57.491Z,47.16
2018-05-29T11:47:25.793Z,44.25
2018-05-29T11:49:54.074Z,44.39
2018-05-29T11:52:22.384Z,45.44
2018-05-29T11:54:50.748Z,48.43
2018-05-29T11:57:19.902Z,48.45
2018-05-29T11:59:48.267Z,47.08
2018-05-29T12:02:16.540Z,46.06
2018-05-29T12:04:44.824Z,45.67
2018-05-29T12:07:13.100Z,46.04
2018-05-29T12:09:41.433Z,45.77
2018-05-29T12:12:34.347Z,46.77
2018-05-29T12:15:03.402Z,46.98
2018-05-29T12:17:31.730Z,45.84
2018-05-29T12:20:00.789Z,46.43
2018-05-29T12:22:29.059Z,47.46
2018-05-29T12:24:57.354Z,47.55
2018-05-29T12:27:25.622Z,46.94
2018-05-29T12:29:53.901Z,44.39
2018-05-29T12:32:22.993Z,45.63
2018-05-29T12:34:52.080Z,46.30
2018-05-29T12:37:20.424Z,46.82
2018-05-29T12:39:48.737Z,44.70
2018-05-29T12:42:17.037Z,46.30
2018-05-29T12:44:46.080Z,45.52
2018-05-29T12:47:15.217Z,44.30
2018-05-29T12:49:43.493Z,44.28
2018-05-29T12:52:11.783Z,43.96
2018-05-29T12:54:40.048Z,44.69
2018-05-29T12:57:09.371Z,44.76
2018-05-29T12:59:37.658Z,44.09
2018-05-29T13:02:06.704Z,43.55
2018-05-29T13:04:34.988Z,43.07
2018-05-29T13:07:03.312Z,42.45
2018-05-29T13:09:31.616Z,43.63
2018-05-29T13:12:00.174Z,45.83
2018-05-29T13:14:28.468Z,45.69
2018-05-29T13:16:56.877Z,43.56
2018-05-29T13:19:25.184Z,43.34
2018-05-29T13:21:54.243Z,44.18
2018-05-29T13:24:22.565Z,42.42
2018-05-29T13:26:50.882Z,42.72
2018-05-29T13:29:19.225Z,41.28
2018-05-29T13:31:47.500Z,41.98
2018-05-29T13:34:15.821Z,41.26
2018-05-29T13:36:44.109Z,42.05
2018-05-29T13:39:12.763Z,41.78
2018-05-29T13:41:41.037Z,42.77
2018-05-29T13:44:09.339Z,45.09
2018-05-29T13:46:37.643Z,42.96
2018-05-29T13:49:05.918Z,44.37
2018-05-29T13:51:34.198Z,44.88
2018-05-29T13:54:02.502Z,44.58
2018-05-29T13:56:31.009Z,44.71
2018-05-29T13:58:59.274Z,45.89
2018-05-29T14:01:27.570Z,44.47
2018-05-29T14:03:55.869Z,45.47
2018-05-29T14:06:25.386Z,46.80
2018-05-29T14:08:53.705Z,44.14
2018-05-29T14:11:21.985Z,42.72
2018-05-29T14:13:50.366Z,43.18
2018-05-29T14:16:18.643Z,43.24
2018-05-29T14:18:46.925Z,45.35
2018-05-29T14:21:15.236Z,44.18
2018-05-29T14:23:43.534Z,43.86
2018-05-29T14:26:11.831Z,42.77
2018-05-29T14:28:40.881Z,43.08
2018-05-29T14:31:09.161Z,42.44
2018-05-29T14:33:37.445Z,43.37
2018-05-29T14:36:05.722Z,44.52
2018-05-29T14:38:34.024Z,42.50
2018-05-29T14:41:02.322Z,41.96
2018-05-29T14:43:30.619Z,43.90
2018-05-29T14:45:58.905Z,44.62
2018-05-29T14:48:27.179Z,44.22
2018-05-29T14:50:55.584Z,43.14
2018-05-29T14:53:23.923Z,40.61
2018-05-29T14:55:52.231Z,41.81
2018-05-29T14:58:20.594Z,45.15
2018-05-29T15:00:49.719Z,42.09
2018-05-29T15:03:18.014Z,41.12
2018-05-29T15:05:46.447Z,41.46
2018-05-29T15:08:14.741Z,42.54
2018-05-29T15:10:43.032Z,42.78
2018-05-29T15:13:11.339Z,42.79
2018-05-29T15:15:39.613Z,44.79
2018-05-29T15:18:07.888Z,42.18
2018-05-29T15:20:36.226Z,43.35
2018-05-29T15:23:05.536Z,43.52
2018-05-29T15:25:34.566Z,42.84
2018-05-29T15:28:03.083Z,41.91
2018-05-29T15:30:31.383Z,42.65
2018-05-29T15:32:59.750Z,43.36
2018-05-29T15:35:28.049Z,43.07
2018-05-29T15:37:56.357Z,44.00
2018-05-29T15:40:24.690Z,42.40
2018-05-29T15:42:52.970Z,41.94
2018-05-29T15:45:22.030Z,42.51
2018-05-29T15:47:50.315Z,42.72
2018-05-29T15:50:18.651Z,43.08
2018-05-29T15:52:47.713Z,44.40
2018-05-29T15:55:16.014Z,42.73
2018-05-29T15:57:44.306Z,43.12
2018-05-29T16:00:12.609Z,44.05
2018-05-29T16:02:41.660Z,43.82
2018-05-29T16:05:09.960Z,45.19
2018-05-29T16:07:38.231Z,44.62
2018-05-29T16:10:06.531Z,45.23
2018-05-29T16:12:34.807Z,46.83
2018-05-29T16:15:03.114Z,44.51
2018-05-29T16:17:31.392Z,44.33
2018-05-29T16:19:59.694Z,44.64
2018-05-29T16:22:27.972Z,43.62
2018-05-29T16:24:56.274Z,43.40
2018-05-29T16:27:24.569Z,43.98
2018-05-29T16:29:52.987Z,45.16
2018-05-29T16:32:22.038Z,44.47
2018-05-29T16:34:50.429Z,43.90
2018-05-29T16:37:18.743Z,44.20
2018-05-29T16:39:47.040Z,44.97
2018-05-29T16:42:15.486Z,43.68
2018-05-29T16:44:43.771Z,44.37
2018-05-29T16:47:12.108Z,43.48
2018-05-29T16:49:40.403Z,43.75
2018-05-29T16:52:08.693Z,43.89
2018-05-29T16:54:36.978Z,44.42
2018-05-29T16:57:05.979Z,44.34
2018-05-29T16:59:34.297Z,46.18
2018-05-29T17:02:02.823Z,45.16
2018-05-29T17:04:31.114Z,45.35
2018-05-29T17:06:59.395Z,44.50
2018-05-29T17:09:27.699Z,44.67
2018-05-29T17:11:56.002Z,45.26
2018-05-29T17:14:24.304Z,45.29
2018-05-29T17:16:52.626Z,45.37
2018-05-29T17:19:21.022Z,45.47
2018-05-29T17:21:49.370Z,45.56
2018-05-29T17:24:17.602Z,44.94
2018-05-29T17:26:45.880Z,45.82
2018-05-29T17:29:14.166Z,45.57
2018-05-29T17:31:42.487Z,44.73
2018-05-29T17:34:11.081Z,44.96
2018-05-29T17:36:39.362Z,45.70
2018-05-29T17:39:07.659Z,46.44
2018-05-29T17:41:35.942Z,46.56
2018-05-29T17:44:04.284Z,47.26
2018-05-29T17:46:32.546Z,47.52
2018-05-29T17:49:00.866Z,47.87
2018-05-29T17:51:29.507Z,48.44
2018-05-29T17:53:57.805Z,48.08
2018-05-29T17:56:26.146Z,48.10
2018-05-29T17:58:54.386Z,47.93
2018-05-29T18:01:22.656Z,48.35
2018-05-29T18:03:50.963Z,48.13
2018-05-29T18:06:19.232Z,48.68
2018-05-29T18:08:47.544Z,48.96
2018-05-29T18:11:15.830Z,49.11
2018-05-29T18:13:44.139Z,49.12
2018-05-29T18:16:12.538Z,49.45
2018-05-29T18:18:40.824Z,49.45
2018-05-29T18:21:09.100Z,49.63
2018-05-29T18:23:37.403Z,49.58
2018-05-29T18:26:05.732Z,49.36
2018-05-29T18:28:34.002Z,49.70
2018-05-29T18:31:03.413Z,49.71
2018-05-29T18:33:31.643Z,49.91
2018-05-29T18:35:59.978Z,50.04
2018-05-29T18:38:29.099Z,49.93
2018-05-29T18:40:57.325Z,50.27
2018-05-29T18:43:25.625Z,49.58
2018-05-29T18:45:54.050Z,49.82
2018-05-29T18:48:22.323Z,50.55
2018-05-29T18:50:50.603Z,50.69
2018-05-29T18:53:18.881Z,50.76
2018-05-29T18:55:47.163Z,50.83
2018-05-29T18:58:15.439Z,50.75
2018-05-29T19:00:43.811Z,50.57
2018-05-29T19:03:12.475Z,50.69
2018-05-29T19:05:40.760Z,50.80
2018-05-29T19:08:09.967Z,51.04
2018-05-29T19:10:38.262Z,51.46
2018-05-29T19:13:06.538Z,51.11
2018-05-29T19:15:34.848Z,51.13
2018-05-29T19:18:03.176Z,51.67
2018-05-29T19:20:31.523Z,51.11
2018-05-29T19:22:59.874Z,50.75
2018-05-29T19:25:28.134Z,50.89
2018-05-29T19:27:56.458Z,51.50
2018-05-29T19:30:24.863Z,51.98
2018-05-29T19:32:53.931Z,52.83
2018-05-29T19:35:22.250Z,53.26
2018-05-29T19:37:50.708Z,53.20
2018-05-29T19:40:18.979Z,53.25
2018-05-29T19:42:48.053Z,53.88
2018-05-29T19:45:16.333Z,54.03
2018-05-29T19:47:44.609Z,54.13
2018-05-29T19:50:12.905Z,54.20
2018-05-29T19:52:41.177Z,54.30
2018-05-29T19:55:09.478Z,54.18
2018-05-29T19:57:37.747Z,54.55
2018-05-29T20:00:06.018Z,54.87
2018-05-29T20:02:34.460Z,55.11
2018-05-29T20:05:02.734Z,55.29
2018-05-29T20:07:31.015Z,54.93
2018-05-29T20:09:59.379Z,55.05
2018-05-29T20:12:28.495Z,54.92
2018-05-29T20:14:56.786Z,54.08
2018-05-29T20:17:33.039Z,54.11
2018-05-29T20:20:01.372Z,53.92
2018-05-29T20:22:30.382Z,53.94
2018-05-29T20:24:58.848Z,53.99
2018-05-29T20:27:27.144Z,54.02
2018-05-29T20:29:55.436Z,53.99
2018-05-29T20:32:23.728Z,54.64
2018-05-29T20:34:52.016Z,54.97
2018-05-29T20:37:20.335Z,54.66
2018-05-29T20:39:49.402Z,54.54
2018-05-29T20:42:17.810Z,54.63
2018-05-29T20:44:46.157Z,54.90
2018-05-29T20:47:14.424Z,55.13
2018-05-29T20:49:43.680Z,54.62
2018-05-29T20:52:11.945Z,54.59
2018-05-29T20:54:40.263Z,54.62
2018-05-29T20:57:08.570Z,54.53
2018-05-29T20:59:36.840Z,55.14
2018-05-29T21:02:05.126Z,55.70
2018-05-29T21:04:33.428Z,56.73
2018-05-29T21:07:02.634Z,57.23
2018-05-29T21:09:30.911Z,59.07
2018-05-29T21:11:59.279Z,59.83
2018-05-29T21:14:27.562Z,61.25
2018-05-29T21:16:55.866Z,61.56
2018-05-29T21:19:24.325Z,62.32
2018-05-29T21:21:53.454Z,61.74
2018-05-29T21:24:21.762Z,62.65
2018-05-29T21:26:50.118Z,62.82
2018-05-29T21:29:19.362Z,63.45
2018-05-29T21:31:47.629Z,63.67
2018-05-29T21:34:15.922Z,64.33
2018-05-29T21:36:44.336Z,64.92
2018-05-29T21:39:12.630Z,65.44
2018-05-29T21:41:40.914Z,64.72
2018-05-29T21:44:09.378Z,65.53
2018-05-29T21:46:37.665Z,66.58
2018-05-29T21:49:05.937Z,67.58
2018-05-29T21:51:35.145Z,68.46
2018-05-29T21:54:04.179Z,67.86
2018-05-29T21:56:32.462Z,67.28
2018-05-29T21:59:00.807Z,67.08
2018-05-29T22:01:29.886Z,67.60
2018-05-29T22:04:03.968Z,67.71
2018-05-29T22:06:32.250Z,68.75
2018-05-29T22:09:01.288Z,69.49
2018-05-29T22:11:29.580Z,69.11
2018-05-29T22:13:57.867Z,71.03
2018-05-29T22:16:26.157Z,72.11
2018-05-29T22:18:54.462Z,70.77
2018-05-29T22:21:22.760Z,70.98
2018-05-29T22:23:51.054Z,71.89
2018-05-29T22:26:19.342Z,72.48
2018-05-29T22:28:47.639Z,71.83
2018-05-29T22:31:16.037Z,72.12
2018-05-29T22:33:44.321Z,73.04
2018-05-29T22:36:12.604Z,72.72
2018-05-29T22:38:41.045Z,72.82
2018-05-29T22:41:09.332Z,73.45
2018-05-29T22:43:37.634Z,73.90
2018-05-29T22:46:05.970Z,74.29
2018-05-29T22:51:02.634Z,74.38
2018-05-29T22:53:30.935Z,74.65
2018-05-29T22:55:59.234Z,73.79
2018-05-29T22:58:28.271Z,73.36
2018-05-29T23:00:56.575Z,72.91
2018-05-29T23:03:24.866Z,73.47
2018-05-29T23:05:53.152Z,73.85
2018-05-29T23:08:21.436Z,73.50
2018-05-29T23:10:49.731Z,73.22
2018-05-29T23:13:18.029Z,73.53
2018-05-29T23:15:47.078Z,73.58
2018-05-29T23:18:16.123Z,73.34
2018-05-29T23:20:44.430Z,73.78
2018-05-29T23:23:12.728Z,74.07
2018-05-29T23:25:41.021Z,74.53
2018-05-29T23:28:09.306Z,72.81
2018-05-29T23:30:37.573Z,72.90
2018-05-29T23:33:05.857Z,73.10
2018-05-29T23:35:34.137Z,73.21
2018-05-29T23:38:02.435Z,71.77
2018-05-29T23:40:30.711Z,72.10
2018-05-29T23:42:59.006Z,72.42
2018-05-29T23:45:27.304Z,71.45
2018-05-29T23:47:55.631Z,70.99
2018-05-29T23:50:23.904Z,71.12
2018-05-29T23:52:52.211Z,70.79
2018-05-29T23:55:21.262Z,71.13
2018-05-29T23:57:49.549Z,71.22
